Airfield :
LOGIN :

Register | Disclaimer

   EN    FR    IT 

 










Legend :    VFR   Marginal VFR   IFR   Intensive IFR   Very Intensive IFR
Visi :
Ceiling :
>= 8 km
>= 3000ft
5 to 8 km
1000 to 3000 ft
1500m to 5 km
500 to 1000 ft
800 to 1500m
200 to 500 ft
< 800m
< 200 ft
Symbols :   Thunderstorms  Fog  Heavy snow  Heavy precipitations  Wind > 20 kt
SIGMETs :     Misc.  Thunderstorms  Icing  Turbulence  Mountain Waves  Volcanic Ashes







- Airport Elevation : 84 ft
- Download approach charts


LFBC - Cazaux

CURRENT METAR :
  • 100300Z AUTO 00000KT 4300 BR SCT024 BKN031 OVC044 07/06 Q1033

EXPIRED METARs :
  • 100230Z AUTO 00000KT 6000 1800 BKN025 BKN030 08/07 Q1033
  • 100200Z AUTO 00000KT CAVOK 09/07 Q1033
  • 100130Z AUTO 34003KT 9999 FEW024 BKN054 10/08 Q1033
  • 100100Z AUTO 29002KT 9999 SCT026 SCT035 BKN048 10/08 Q1033
  • 100030Z AUTO 28003KT 9999 FEW033 OVC052 09/08 Q1033

Expired Forecast.
No reported NOTAMs for that airfield.
1 SIGMET reported for the Bordeaux FIR (LFBB) :
 
Severe turbulence
LFBB SIGMET 1 VALID 100200/100600 LFPW
LFBB BORDEAUX FIR/UIR SEV TURB FCST SE OF LINE N4345 E00245 - N4230 E00130 SFC/FL080 STNR NC=



MET'MAP, your aeronautical weather chart ! - Copyright ORBIFLY December 2007 - Disclaimer

ORBIFLY MET'MAP TEAM :

Programming & Development : Alexandra Zaïnal
Concept & Development : Baudouin d'Aumeries
Co-Development & Prog : Marc-Olivier Méhu
Technical & hardware support : Manuel Goepfert

Contact : metmap@orbifly.com




SOURCES & CREDITS :

   NOAA